Airfield :







YOU CAN JOIN US ON...

 
LOGIN :

Register | Disclaimer

   EN    FR    IT 

 









Legend :    VFR   Marginal VFR   IFR   Intensive IFR   Very Intensive IFR
Visi :
Ceiling :
>= 8 km
>= 3000ft
5 to 8 km
1000 to 3000 ft
1500m to 5 km
500 to 1000 ft
800 to 1500m
200 to 500 ft
< 800m
< 200 ft
Symbols :   Thunderstorms  Fog  Heavy snow  Heavy precipitations  Wind > 20 kt






- Airport Elevation : 1270 ft
- IATA code : YMT


CYMT - Chapais

CURRENT METAR :
  • 291800Z AUTO 09003KT 9SM CLR M19/M24 A3012 RMK SLP252

EXPIRED METARs :
  • 291700Z AUTO 13002KT 9SM CLR M21/M24 A3015 RMK SLP264
  • 291600Z AUTO 12002KT 9SM SCT220 M24/M27 A3019 RMK SLP277

TAF TAF CYMT
Valid from the 29 at 18:00 until the 30 at 01:00 UTC


291740Z 2918/3001 VRB03KT P6SM BKN170 RMK FCST BASED ON AUTO OBS. NXT FCST BY 301300Z
CZUL FIR / North America



MET'MAP, your aeronautical weather chart ! - Copyright ORBIFLY December 2007 - Disclaimer

ORBIFLY MET'MAP TEAM :

Programming & Development : Alexandra Zaïnal
Original concept : Baudouin d'Aumeries
Technical & hardware support : Manuel Goepfert
Assistance : Marc-Olivier Méhu




SOURCES & CREDITS :

   NOAA